Time;durP1;ratioP1;P1;durP2;ratioP2;P2;SDS_P1;SDS_P2;PMS_P1;PMS_P2;Temp;Humidity;BMP_temperature;BMP_pressure;BME280_temperature;BME280_humidity;BME280_pressure;Samples;Min_cycle;Max_cycle;Signal;HPM_P1;HPM_P2
2022/07/26 00:00:48;;;;;;;12.55;8.65;;;;;;;24.31;54.64;94765.13;4983500;28;20413;-60
2022/07/26 00:03:13;;;;;;;10.32;8.40;;;;;;;24.26;54.58;94757.75;4965519;28;20053;-52
2022/07/26 00:05:39;;;;;;;10.95;8.88;;;;;;;24.24;54.42;94771.19;4983440;28;20030;-58
2022/07/26 00:08:11;;;;;;;11.45;9.35;;;;;;;24.17;55.19;94765.59;4982946;28;20061;-60
2022/07/26 00:10:39;;;;;;;11.07;9.30;;;;;;;24.21;55.13;94766.75;4950682;28;20031;-55
2022/07/26 00:13:04;;;;;;;11.40;8.73;;;;;;;24.16;55.09;94764.88;4982740;28;20138;-56
2022/07/26 00:15:30;;;;;;;11.20;9.07;;;;;;;24.17;55.11;94766.34;4983185;28;20521;-57
2022/07/26 00:17:55;;;;;;;13.90;9.25;;;;;;;24.08;55.32;94769.47;4982557;28;20034;-61
2022/07/26 00:20:21;;;;;;;11.00;9.68;;;;;;;24.04;55.21;94755.38;4982960;28;20037;-59
2022/07/26 00:22:46;;;;;;;11.98;10.15;;;;;;;24.04;55.39;94763.56;4982781;28;20058;-60
2022/07/26 00:25:11;;;;;;;12.35;9.98;;;;;;;23.96;55.96;94759.97;4983404;28;20105;-61
2022/07/26 00:27:37;;;;;;;14.40;9.88;;;;;;;23.96;55.56;94759.97;4982803;28;20030;-56
2022/07/26 00:30:06;;;;;;;13.32;11.00;;;;;;;23.93;55.80;94750.09;4983369;28;20033;-58
2022/07/26 00:32:32;;;;;;;13.50;10.65;;;;;;;23.96;55.99;94751.03;4982703;28;20061;-54
2022/07/26 00:34:57;;;;;;;12.15;9.80;;;;;;;23.91;56.26;94755.31;4983033;28;20497;-60
2022/07/26 00:37:23;;;;;;;15.63;10.35;;;;;;;23.92;55.43;94747.91;4982522;28;20035;-60
2022/07/26 00:39:49;;;;;;;15.38;10.77;;;;;;;23.87;55.93;94752.19;4982726;28;20407;-58
2022/07/26 00:42:14;;;;;;;12.60;10.13;;;;;;;23.86;55.76;94756.16;4982734;28;20022;-59
2022/07/26 00:44:41;;;;;;;13.55;11.15;;;;;;;23.86;55.70;94751.97;4983075;28;20509;-59
2022/07/26 00:47:06;;;;;;;13.60;10.75;;;;;;;23.84;56.21;94746.28;4982623;28;20022;-57
2022/07/26 00:49:32;;;;;;;13.73;10.63;;;;;;;23.74;55.93;94739.75;4983413;28;20058;-59
2022/07/26 00:51:57;;;;;;;14.07;10.25;;;;;;;23.72;56.18;94744.97;4982828;28;20069;-59
2022/07/26 00:54:23;;;;;;;15.90;10.85;;;;;;;23.70;56.52;94742.03;4986876;28;20026;-60
2022/07/26 00:56:48;;;;;;;14.90;10.93;;;;;;;23.67;56.30;94751.25;4961348;28;20023;-56
2022/07/26 00:59:14;;;;;;;15.05;11.02;;;;;;;23.61;57.14;94742.38;4980934;28;20030;-58
2022/07/26 01:01:39;;;;;;;13.20;10.43;;;;;;;23.60;56.76;94751.78;4960504;28;20541;-57
2022/07/26 01:04:04;;;;;;;13.25;10.48;;;;;;;23.57;56.61;94758.28;4977403;28;20109;-58
2022/07/26 01:06:30;;;;;;;13.35;10.23;;;;;;;23.54;57.05;94740.22;4983654;28;20410;-61
2022/07/26 01:08:55;;;;;;;14.63;10.45;;;;;;;23.53;56.92;94757.84;4979078;28;20430;-56
2022/07/26 01:11:21;;;;;;;12.98;10.98;;;;;;;23.54;57.11;94753.84;4982368;28;20043;-56
2022/07/26 01:13:47;;;;;;;13.27;11.60;;;;;;;23.44;57.00;94747.31;4983183;28;20077;-59
2022/07/26 01:16:13;;;;;;;13.05;10.63;;;;;;;23.45;57.27;94746.06;4979064;28;20038;-62
2022/07/26 01:18:38;;;;;;;13.90;10.30;;;;;;;23.39;57.41;94748.13;4983077;28;20018;-59
2022/07/26 01:21:04;;;;;;;15.32;10.43;;;;;;;23.42;57.44;94755.25;4983006;28;20519;-57
2022/07/26 01:23:30;;;;;;;13.02;10.35;;;;;;;23.37;57.57;94756.06;4978502;28;20510;-61
2022/07/26 01:25:55;;;;;;;15.63;11.25;;;;;;;23.34;57.49;94751.66;4975292;28;20022;-61
2022/07/26 01:28:21;;;;;;;14.00;10.52;;;;;;;23.26;58.01;94745.31;4984605;28;20031;-59
2022/07/26 01:30:47;;;;;;;13.50;10.20;;;;;;;23.24;58.03;94745.09;4990547;28;20501;-61
2022/07/26 01:33:13;;;;;;;12.77;10.65;;;;;;;23.23;58.19;94749.06;4971598;28;20049;-58
2022/07/26 01:35:38;;;;;;;15.90;10.82;;;;;;;23.15;58.80;94750.91;4987541;28;20027;-61
2022/07/26 01:38:04;;;;;;;14.27;10.73;;;;;;;23.16;59.05;94736.03;4987394;28;20033;-58
2022/07/26 01:40:29;;;;;;;13.30;10.98;;;;;;;23.13;58.79;94742.50;4987898;28;20022;-58
2022/07/26 01:42:54;;;;;;;12.68;10.23;;;;;;;23.09;58.81;94736.63;4987321;28;20716;-59
2022/07/26 01:45:20;;;;;;;13.65;10.25;;;;;;;23.05;58.76;94741.63;5003883;28;20421;-59
2022/07/26 01:47:48;;;;;;;18.88;11.27;;;;;;;23.04;58.69;94734.69;4989570;28;20026;-52
2022/07/26 01:50:14;;;;;;;15.77;10.85;;;;;;;23.05;58.95;94741.63;4987566;28;20046;-60
2022/07/26 01:52:39;;;;;;;13.38;11.27;;;;;;;23.01;58.63;94741.16;4985688;28;20076;-59
2022/07/26 01:55:05;;;;;;;13.98;10.98;;;;;;;22.99;59.09;94743.66;4994508;28;20038;-58
2022/07/26 01:57:30;;;;;;;12.07;9.75;;;;;;;22.97;59.34;94739.97;4990496;28;20034;-54
2022/07/26 01:59:56;;;;;;;14.77;10.93;;;;;;;22.92;59.11;94748.94;4986279;28;20022;-61
2022/07/26 02:02:22;;;;;;;15.10;11.02;;;;;;;22.88;59.54;94749.22;4985763;28;20022;-59
2022/07/26 02:05:00;;;;;;;12.50;10.90;;;;;;;22.80;59.53;94752.28;4967830;28;20030;-56
2022/07/26 02:07:30;;;;;;;13.13;10.45;;;;;;;22.72;59.76;94751.38;4985138;28;20809;-58
2022/07/26 02:09:55;;;;;;;;;;;;;;;22.71;60.17;94752.63;4985858;28;20018;-57
2022/07/26 02:12:21;;;;;;;12.95;9.80;;;;;;;22.70;60.41;94759.31;4995883;28;19913;-63
2022/07/26 02:14:46;;;;;;;16.02;11.05;;;;;;;22.67;59.95;94760.34;4988629;28;20018;-62
2022/07/26 02:17:12;;;;;;;13.45;10.35;;;;;;;22.62;60.24;94758.41;4985740;28;20580;-57
2022/07/26 02:19:37;;;;;;;14.20;10.60;;;;;;;22.63;60.03;94765.31;4968120;28;20034;-59
2022/07/26 02:22:03;;;;;;;13.25;10.75;;;;;;;22.60;60.20;94771.78;4974779;28;20560;-59
2022/07/26 02:24:28;;;;;;;13.40;10.93;;;;;;;22.61;60.36;94759.66;4998209;28;20030;-59
2022/07/26 02:26:55;;;;;;;13.85;10.75;;;;;;;22.56;60.48;94765.91;4985960;28;20030;-61
2022/07/26 02:29:20;;;;;;;13.00;10.45;;;;;;;22.52;60.54;94760.00;4985370;28;20030;-59
2022/07/26 02:31:46;;;;;;;13.77;10.93;;;;;;;22.49;60.63;94763.72;4985413;28;21351;-57
2022/07/26 02:34:12;;;;;;;14.50;10.40;;;;;;;22.42;60.85;94761.59;4988933;28;20030;-56
2022/07/26 02:36:38;;;;;;;13.73;10.95;;;;;;;22.45;60.81;94760.53;4987459;28;20042;-59
2022/07/26 02:39:03;;;;;;;16.42;11.02;;;;;;;22.41;60.43;94760.09;4984710;28;20065;-59
2022/07/26 02:41:30;;;;;;;14.57;11.68;;;;;;;22.37;60.62;94765.06;4983510;28;20196;-58
2022/07/26 02:43:56;;;;;;;14.23;11.23;;;;;;;22.33;60.82;94763.88;4980100;28;20030;-58
2022/07/26 02:46:22;;;;;;;13.90;11.07;;;;;;;22.39;60.48;94765.31;4979448;28;20050;-60
2022/07/26 02:48:47;;;;;;;14.75;11.35;;;;;;;22.31;60.74;94767.09;4984558;28;20077;-53
2022/07/26 02:51:13;;;;;;;16.73;10.73;;;;;;;22.24;61.32;94773.13;4984516;28;20534;-60
2022/07/26 02:53:38;;;;;;;13.63;10.95;;;;;;;22.24;61.23;94773.13;4984681;28;20046;-59
2022/07/26 02:56:04;;;;;;;14.73;11.85;;;;;;;22.26;61.32;94773.34;4998032;28;20676;-58
2022/07/26 02:58:30;;;;;;;13.10;10.80;;;;;;;22.23;61.58;94771.63;4984320;28;20058;-62
2022/07/26 03:00:55;;;;;;;14.00;10.82;;;;;;;22.19;61.24;94765.69;4974749;28;20034;-58
2022/07/26 03:03:21;;;;;;;12.18;10.52;;;;;;;22.13;61.44;94762.28;4983642;28;20057;-59
2022/07/26 03:05:46;;;;;;;14.55;11.70;;;;;;;22.11;61.47;94770.22;4984215;28;20006;-58
2022/07/26 03:08:11;;;;;;;12.70;11.30;;;;;;;22.06;61.88;94772.97;4979451;28;20781;-56
2022/07/26 03:10:37;;;;;;;13.40;10.65;;;;;;;22.14;61.89;94769.19;4975265;28;20449;-60
2022/07/26 03:13:03;;;;;;;14.98;11.30;;;;;;;22.10;60.97;94774.16;4983447;28;20026;-60
2022/07/26 03:15:28;;;;;;;14.07;10.75;;;;;;;22.14;60.65;94774.66;4984075;28;20026;-60
2022/07/26 03:17:54;;;;;;;13.35;10.57;;;;;;;22.15;60.71;94776.13;4983379;28;20037;-58
2022/07/26 03:20:19;;;;;;;13.82;10.80;;;;;;;22.13;61.29;94778.59;4984022;28;20030;-54
2022/07/26 03:22:45;;;;;;;13.90;11.00;;;;;;;22.07;61.67;94775.19;4982899;28;20026;-55
2022/07/26 03:25:10;;;;;;;13.75;10.77;;;;;;;22.04;61.81;94775.47;4983812;28;20081;-61
2022/07/26 03:27:36;;;;;;;14.93;10.73;;;;;;;22.03;61.58;94780.19;4983541;28;20030;-52
2022/07/26 03:30:01;;;;;;;12.82;10.20;;;;;;;22.06;61.29;94786.56;4983857;28;20101;-60
2022/07/26 03:32:26;;;;;;;14.07;10.80;;;;;;;22.02;61.55;94789.56;4983434;28;20784;-60
2022/07/26 03:34:52;;;;;;;13.82;10.70;;;;;;;22.02;61.58;94784.13;4983779;28;20494;-57
2022/07/26 03:37:17;;;;;;;14.95;11.13;;;;;;;22.05;61.20;94788.56;4983301;28;20034;-58
2022/07/26 03:39:43;;;;;;;14.95;10.52;;;;;;;22.02;61.36;94778.69;4984452;28;20033;-60
2022/07/26 03:42:09;;;;;;;12.55;10.50;;;;;;;21.96;61.43;94779.97;4983800;28;20387;-57
2022/07/26 03:44:34;;;;;;;14.38;10.50;;;;;;;21.97;61.64;94774.03;4986408;28;20041;-60
2022/07/26 03:47:00;;;;;;;13.18;10.55;;;;;;;22.00;62.03;94781.19;4987968;28;20026;-59
2022/07/26 03:49:25;;;;;;;13.05;10.18;;;;;;;21.96;62.11;94779.97;4962882;28;20046;-58
2022/07/26 03:51:50;;;;;;;14.23;10.55;;;;;;;21.97;61.91;94776.75;4964045;28;20030;-65
2022/07/26 03:54:16;;;;;;;13.27;10.57;;;;;;;21.92;62.31;94780.22;4953366;28;20031;-62
2022/07/26 03:56:42;;;;;;;13.73;10.63;;;;;;;21.93;62.31;94775.56;4975220;28;20046;-61
2022/07/26 03:59:08;;;;;;;12.10;9.55;;;;;;;21.98;62.47;94783.66;4969096;28;20035;-60
2022/07/26 04:01:34;;;;;;;13.88;10.27;;;;;;;22.03;61.83;94777.47;4963530;28;20030;-60
2022/07/26 04:04:00;;;;;;;15.68;10.70;;;;;;;21.99;61.80;94768.81;4963930;28;20035;-55
2022/07/26 04:06:26;;;;;;;13.07;10.48;;;;;;;22.00;61.80;94781.19;4962017;28;20019;-57
2022/07/26 04:08:52;;;;;;;13.23;10.43;;;;;;;22.03;61.84;94777.47;4962781;28;20027;-54
2022/07/26 04:11:17;;;;;;;14.20;10.88;;;;;;;22.03;62.26;94771.25;4963290;28;20054;-54
2022/07/26 04:13:43;;;;;;;15.45;11.18;;;;;;;22.07;62.28;94774.44;4963932;28;20427;-60
2022/07/26 04:16:08;;;;;;;14.55;10.73;;;;;;;22.06;62.43;94768.28;4962851;28;20140;-57
2022/07/26 04:18:34;;;;;;;14.38;11.70;;;;;;;22.17;62.23;94779.06;4963548;28;20027;-59
2022/07/26 04:20:59;;;;;;;14.35;11.55;;;;;;;22.21;62.33;94771.41;4963498;28;20034;-62
2022/07/26 04:23:25;;;;;;;15.30;11.73;;;;;;;22.25;62.26;94769.13;4963286;28;20486;-59
2022/07/26 04:25:50;;;;;;;18.65;13.23;;;;;;;22.29;62.03;94769.59;4963587;28;20031;-60
2022/07/26 04:28:15;;;;;;;14.82;11.23;;;;;;;22.30;62.14;94776.53;4963239;28;20027;-56
2022/07/26 04:30:41;;;;;;;13.60;10.93;;;;;;;22.32;62.44;94768.59;4975406;28;20515;-56
2022/07/26 04:33:07;;;;;;;15.90;11.98;;;;;;;22.28;62.13;94765.41;4957226;28;20031;-58
2022/07/26 04:35:32;;;;;;;14.80;11.00;;;;;;;22.36;62.47;94769.06;4963178;28;20034;-55
2022/07/26 04:37:57;;;;;;;14.65;10.98;;;;;;;22.39;62.99;94767.28;4962307;28;20074;-59
2022/07/26 04:40:24;;;;;;;14.57;11.52;;;;;;;22.41;62.41;94762.81;4962858;28;20429;-61
2022/07/26 04:42:50;;;;;;;16.75;11.52;;;;;;;22.47;62.27;94763.50;4960976;28;20494;-55
2022/07/26 04:45:15;;;;;;;16.98;11.50;;;;;;;22.52;62.23;94765.44;4963511;28;20031;-59
2022/07/26 04:47:46;;;;;;;16.33;11.70;;;;;;;22.56;62.64;94765.91;4961638;28;20022;-58
2022/07/26 04:50:11;;;;;;;15.93;11.98;;;;;;;22.60;62.83;94766.34;4977996;28;20078;-56
2022/07/26 04:52:37;;;;;;;17.75;12.32;;;;;;;22.66;61.61;94764.28;4982374;28;21000;-59
2022/07/26 04:55:04;;;;;;;16.77;12.80;;;;;;;22.71;61.74;94766.97;4991475;28;20062;-55
2022/07/26 04:57:30;;;;;;;16.10;12.57;;;;;;;22.75;61.31;94772.13;4988447;28;20046;-58
2022/07/26 04:59:55;;;;;;;16.95;12.05;;;;;;;22.81;60.83;94764.63;4986781;28;20045;-59
2022/07/26 05:02:21;;;;;;;16.45;13.27;;;;;;;22.88;60.60;94753.19;4990436;28;20018;-58
2022/07/26 05:04:46;;;;;;;17.30;13.68;;;;;;;22.93;60.28;94762.06;5000186;28;20043;-60
2022/07/26 05:07:12;;;;;;;19.63;14.70;;;;;;;23.03;60.14;94755.03;4989370;28;20022;-57
2022/07/26 05:09:37;;;;;;;15.65;12.05;;;;;;;23.14;60.22;94760.34;4993881;28;20032;-55
2022/07/26 05:12:03;;;;;;;21.55;15.20;;;;;;;23.26;60.40;94758.94;4990615;28;20026;-60
2022/07/26 05:14:28;;;;;;;20.77;14.23;;;;;;;23.45;59.86;94756.94;4995590;28;20006;-57
2022/07/26 05:16:53;;;;;;;18.83;14.50;;;;;;;23.59;59.72;94740.16;5001891;28;20492;-60
2022/07/26 05:19:19;;;;;;;15.35;11.85;;;;;;;23.73;59.24;94738.25;5002551;28;20481;-61
2022/07/26 05:21:44;;;;;;;15.05;12.18;;;;;;;23.91;58.21;94738.22;5003846;28;20019;-63
2022/07/26 05:24:10;;;;;;;16.10;11.95;;;;;;;24.07;58.36;94745.44;5005464;28;20026;-54
2022/07/26 05:26:35;;;;;;;17.05;11.27;;;;;;;24.20;57.84;94743.47;4998951;28;20493;-53
2022/07/26 05:29:01;;;;;;;13.30;10.63;;;;;;;24.32;57.08;94750.22;4995524;28;20113;-55
2022/07/26 05:31:26;;;;;;;13.55;11.05;;;;;;;24.54;57.27;94744.41;4988877;28;20026;-63
2022/07/26 05:33:53;;;;;;;18.13;11.20;;;;;;;24.69;56.58;94753.53;4999580;28;20022;-59
2022/07/26 05:36:19;;;;;;;13.95;10.75;;;;;;;24.85;55.92;94747.78;4996108;28;20030;-59
2022/07/26 05:38:44;;;;;;;13.80;10.82;;;;;;;25.00;57.08;94745.28;4988500;28;20038;-53
2022/07/26 05:41:10;;;;;;;16.55;11.25;;;;;;;25.10;56.18;94740.88;4985186;28;20034;-53
2022/07/26 07:08:24;;;;;;;15.15;11.20;;;;;;;29.00;45.96;94699.66;2472075;28;22395;-51
2022/07/26 07:10:50;;;;;;;16.40;10.20;;;;;;;29.06;45.79;94708.44;5015220;28;20443;-52
2022/07/26 07:13:16;;;;;;;12.38;9.93;;;;;;;29.08;45.14;94705.84;5020173;28;20053;-56
2022/07/26 07:15:41;;;;;;;16.35;10.48;;;;;;;29.16;45.31;94706.56;5006608;28;20488;-54
2022/07/26 07:18:07;;;;;;;14.40;10.43;;;;;;;29.22;44.88;94710.59;5024466;28;20252;-55
2022/07/26 07:20:33;;;;;;;13.93;10.90;;;;;;;29.30;45.08;94705.09;5023463;28;20038;-56
2022/07/26 07:22:58;;;;;;;14.82;10.90;;;;;;;29.37;44.50;94707.06;5024432;28;20099;-53
2022/07/26 07:25:24;;;;;;;15.30;10.55;;;;;;;29.47;45.01;94707.94;5023391;28;20022;-54
2022/07/26 07:27:50;;;;;;;17.33;11.00;;;;;;;29.46;45.49;94700.97;5022756;28;20032;-55
2022/07/26 07:30:16;;;;;;;13.05;10.45;;;;;;;29.55;45.59;94708.66;5020070;28;20061;-52
2022/07/26 07:32:41;;;;;;;15.32;10.88;;;;;;;29.55;45.36;94694.88;5005260;28;20033;-52
2022/07/26 07:35:07;;;;;;;15.02;10.45;;;;;;;29.56;45.46;94710.13;5024498;28;20026;-52
2022/07/26 07:37:34;;;;;;;12.93;9.60;;;;;;;29.54;45.18;94707.19;5024402;28;20031;-52
2022/07/26 07:39:59;;;;;;;12.73;10.52;;;;;;;29.61;44.81;94700.91;5025000;28;20033;-53
2022/07/26 07:42:25;;;;;;;12.88;9.52;;;;;;;29.65;44.94;94701.25;5025002;28;20028;-52
2022/07/26 07:44:50;;;;;;;12.98;9.48;;;;;;;29.63;44.49;94699.06;5024705;28;20030;-52
2022/07/26 07:47:16;;;;;;;12.48;9.38;;;;;;;29.67;44.70;94700.16;5024875;28;20048;-52
2022/07/26 07:49:41;;;;;;;12.48;10.43;;;;;;;29.72;44.72;94690.94;5024230;28;20021;-53
2022/07/26 07:52:07;;;;;;;12.02;9.70;;;;;;;29.75;43.86;94684.31;5024125;28;20069;-53
2022/07/26 07:54:32;;;;;;;15.07;10.82;;;;;;;29.88;44.14;94686.84;5024540;28;20504;-53
2022/07/26 07:56:58;;;;;;;13.77;10.60;;;;;;;29.98;43.91;94684.22;5023236;28;20038;-51
2022/07/26 07:59:23;;;;;;;13.65;10.45;;;;;;;30.03;44.55;94686.75;5024728;28;20033;-52
2022/07/26 08:01:49;;;;;;;14.18;10.38;;;;;;;30.03;45.02;94686.00;5023957;28;20014;-53
2022/07/26 08:04:14;;;;;;;14.75;10.45;;;;;;;30.01;44.12;94683.81;5020175;28;20694;-52
2022/07/26 08:06:40;;;;;;;12.93;9.50;;;;;;;30.00;44.20;94682.38;5023870;28;20030;-52
2022/07/26 08:09:06;;;;;;;13.70;10.70;;;;;;;30.03;43.93;94686.75;5024068;28;20523;-52
2022/07/26 08:11:31;;;;;;;14.60;11.15;;;;;;;30.13;43.94;94684.81;5011055;28;20064;-51
2022/07/26 08:13:56;;;;;;;13.70;10.60;;;;;;;30.14;43.69;94672.53;5013392;28;20036;-52
2022/07/26 08:16:22;;;;;;;15.93;10.40;;;;;;;30.15;44.09;94676.75;4997082;28;20119;-52
2022/07/26 08:18:48;;;;;;;16.13;11.02;;;;;;;30.19;44.31;94679.81;5015504;28;20040;-52
2022/07/26 08:21:13;;;;;;;16.08;10.55;;;;;;;30.20;44.13;94678.53;5014287;28;20508;-52
2022/07/26 08:23:38;;;;;;;16.30;10.35;;;;;;;30.14;44.51;94669.03;5022136;28;20483;-52
2022/07/26 08:26:04;;;;;;;18.48;9.82;;;;;;;30.12;44.26;94661.34;5005083;28;20030;-51
2022/07/26 08:28:29;;;;;;;12.98;9.93;;;;;;;30.10;44.19;94669.41;5023283;28;20025;-51
2022/07/26 08:30:55;;;;;;;14.45;9.45;;;;;;;30.03;44.43;94653.69;5024190;28;20498;-52
2022/07/26 08:33:22;;;;;;;14.43;9.65;;;;;;;29.96;44.72;94662.72;5022851;28;20029;-51
2022/07/26 08:35:47;;;;;;;14.52;9.98;;;;;;;29.90;44.93;94653.97;5023438;28;20051;-52
2022/07/26 08:38:13;;;;;;;13.23;9.60;;;;;;;29.82;44.89;94658.78;5022376;28;20044;-52
2022/07/26 08:40:45;;;;;;;14.27;10.77;;;;;;;29.76;44.66;94652.75;5022812;28;20731;-52
2022/07/26 08:43:10;;;;;;;13.00;10.10;;;;;;;29.69;44.87;94659.03;5022944;28;20029;-51
2022/07/26 08:45:36;;;;;;;14.13;10.02;;;;;;;29.59;45.15;94654.69;5023434;28;20029;-52
2022/07/26 08:48:01;;;;;;;11.13;9.73;;;;;;;29.54;45.30;94652.16;5024068;28;20403;-52
2022/07/26 08:50:27;;;;;;;11.88;10.05;;;;;;;29.42;45.51;94649.09;5021003;28;20091;-53
2022/07/26 08:52:57;;;;;;;12.85;9.68;;;;;;;29.36;45.88;94642.34;5021955;28;20021;-51
2022/07/26 08:55:22;;;;;;;14.10;10.02;;;;;;;29.26;45.92;94638.72;4990452;28;20084;-52
2022/07/26 08:57:48;;;;;;;13.93;10.38;;;;;;;29.23;46.39;94648.03;5022722;28;20101;-52
2022/07/26 09:00:17;;;;;;;14.35;9.80;;;;;;;29.17;45.80;94636.50;5023619;28;20029;-51
2022/07/26 09:02:43;;;;;;;;;;;;;;;29.15;46.60;94650.09;5017857;28;20026;-52
2022/07/26 09:05:08;;;;;;;11.60;9.32;;;;;;;29.09;45.89;94646.81;5016743;28;19917;-53
2022/07/26 09:07:34;;;;;;;13.98;9.88;;;;;;;29.04;45.85;94647.75;5023693;28;20084;-53
2022/07/26 09:10:02;;;;;;;12.38;9.70;;;;;;;28.98;46.13;94641.72;5024060;28;20050;-53
2022/07/26 09:12:28;;;;;;;10.95;9.60;;;;;;;29.01;46.68;94646.09;5022401;28;20660;-53
2022/07/26 09:14:54;;;;;;;15.75;10.60;;;;;;;29.04;46.50;94639.50;5026746;28;20547;-53
2022/07/26 09:17:22;;;;;;;14.05;10.18;;;;;;;29.08;46.47;94650.84;4991364;28;20034;-52
2022/07/26 09:20:05;;;;;;;12.27;9.50;;;;;;;29.21;46.73;94636.88;5033557;28;20036;-52
2022/07/26 09:22:30;;;;;;;13.65;9.90;;;;;;;29.32;45.93;94637.19;5030897;28;20032;-53
2022/07/26 09:24:56;;;;;;;15.90;10.48;;;;;;;29.38;46.44;94634.25;5023498;28;20517;-53
2022/07/26 09:27:21;;;;;;;12.68;10.27;;;;;;;29.45;46.03;94633.50;5004913;28;20427;-53
2022/07/26 09:29:48;;;;;;;12.65;9.60;;;;;;;29.50;46.18;94635.28;5025153;28;20056;-51
2022/07/26 09:32:16;;;;;;;11.45;10.10;;;;;;;29.55;45.74;94631.56;5021846;28;20025;-51
2022/07/26 09:34:43;;;;;;;12.93;10.45;;;;;;;29.58;46.27;94631.22;5022329;28;20113;-51
2022/07/26 09:37:08;;;;;;;11.82;10.43;;;;;;;29.66;45.90;94631.16;5003756;28;20029;-52
2022/07/26 09:39:52;;;;;;;12.55;10.07;;;;;;;29.77;45.80;94632.16;5023135;28;20049;-52
2022/07/26 09:42:17;;;;;;;11.63;10.02;;;;;;;29.80;45.91;94625.56;5022057;28;20026;-51
2022/07/26 09:44:43;;;;;;;12.77;9.95;;;;;;;29.92;45.43;94637.59;5022914;28;20072;-52
2022/07/26 09:47:08;;;;;;;11.40;10.00;;;;;;;30.05;45.20;94628.34;5023753;28;20028;-52
2022/07/26 09:49:33;;;;;;;12.07;10.52;;;;;;;30.16;45.16;94627.88;5005351;28;20033;-52
2022/07/26 09:51:59;;;;;;;16.63;9.27;;;;;;;30.17;44.86;94619.06;5025183;28;20746;-52
2022/07/26 09:54:27;;;;;;;11.80;9.50;;;;;;;30.22;44.26;94624.34;5028469;28;20091;-54
2022/07/26 09:56:53;;;;;;;12.13;9.77;;;;;;;30.34;44.18;94616.34;5036729;28;20040;-52
2022/07/26 09:59:20;;;;;;;13.00;10.02;;;;;;;30.20;43.11;94612.41;5029709;28;20028;-52
2022/07/26 10:01:45;;;;;;;14.95;10.38;;;;;;;30.13;42.45;94615.97;5025695;28;20031;-52
2022/07/26 10:04:11;;;;;;;11.95;10.00;;;;;;;29.88;43.68;94609.75;5025563;28;20029;-52
2022/07/26 10:06:36;;;;;;;11.35;9.27;;;;;;;29.72;43.87;94608.34;5007398;28;20103;-52
2022/07/26 10:09:02;;;;;;;13.27;9.68;;;;;;;29.57;43.78;94607.00;5020809;28;20225;-52
2022/07/26 10:11:29;;;;;;;12.80;9.88;;;;;;;29.41;44.27;94605.63;4997603;28;20091;-52
2022/07/26 10:13:56;;;;;;;10.32;9.20;;;;;;;29.35;43.99;94605.09;5007152;28;20412;-52
2022/07/26 10:16:29;;;;;;;11.13;9.20;;;;;;;29.27;44.42;94607.16;5025588;28;20065;-52
2022/07/26 10:18:56;;;;;;;10.80;9.43;;;;;;;29.14;44.38;94599.13;5026272;28;20056;-52
2022/07/26 10:21:22;;;;;;;9.73;8.18;;;;;;;29.10;44.28;94604.25;5025332;28;20037;-52
2022/07/26 10:23:57;;;;;;;11.15;9.10;;;;;;;29.00;45.05;94603.41;5026022;28;20542;-52
2022/07/26 10:26:32;;;;;;;11.18;9.50;;;;;;;28.82;44.42;94593.56;5025577;28;20021;-52
2022/07/26 10:29:15;;;;;;;11.10;8.88;;;;;;;28.81;44.51;94589.34;5026255;28;20029;-51
2022/07/26 10:32:01;;;;;;;11.18;8.93;;;;;;;28.75;45.17;94596.34;5024665;28;20034;-52
2022/07/26 10:34:37;;;;;;;11.90;9.35;;;;;;;28.67;44.95;94589.41;5008633;28;20447;-52
2022/07/26 10:37:04;;;;;;;10.60;8.57;;;;;;;28.60;45.61;94590.16;5025369;28;20036;-52
2022/07/26 10:39:29;;;;;;;11.20;9.27;;;;;;;28.57;45.84;94586.47;5024288;28;20493;-52
2022/07/26 10:42:00;;;;;;;11.13;8.90;;;;;;;28.40;45.77;94571.84;5025139;28;20030;-52
2022/07/26 10:44:27;;;;;;;11.90;8.60;;;;;;;28.45;46.09;94584.69;5025671;28;20029;-52
2022/07/26 10:47:01;;;;;;;9.88;8.20;;;;;;;28.39;45.66;94581.41;5024771;28;20025;-52
2022/07/26 10:49:32;;;;;;;9.70;8.60;;;;;;;28.35;46.43;94581.03;5025265;28;20026;-51
2022/07/26 10:52:27;;;;;;;9.65;8.43;;;;;;;28.28;46.41;94576.28;5025122;28;20396;-52
2022/07/26 10:54:58;;;;;;;9.77;8.23;;;;;;;28.31;46.40;94566.94;5023483;28;20120;-52
2022/07/26 10:57:24;;;;;;;12.20;8.65;;;;;;;28.25;46.58;94566.41;5024778;28;20091;-52
2022/07/26 10:59:50;;;;;;;9.23;8.30;;;;;;;28.23;46.37;94557.97;5010561;28;20393;-51
2022/07/26 11:02:19;;;;;;;11.88;8.38;;;;;;;28.21;46.10;94555.06;5022971;28;20099;-52
2022/07/26 11:04:44;;;;;;;9.57;8.57;;;;;;;28.19;45.77;94546.66;5023797;28;20025;-52
2022/07/26 11:07:11;;;;;;;8.88;7.90;;;;;;;28.20;46.15;94553.59;4983221;28;20041;-51
2022/07/26 11:12:17;;;;;;;8.93;7.78;;;;;;;28.07;46.67;94540.06;5029419;23;20420;-61
2022/07/26 11:14:42;;;;;;;8.32;7.43;;;;;;;28.01;46.30;94531.28;5033606;28;20116;-61
2022/07/26 11:17:08;;;;;;;10.70;8.65;;;;;;;28.00;45.93;94529.81;5043289;28;20116;-61
2022/07/26 11:19:38;;;;;;;8.85;7.93;;;;;;;27.94;46.01;94521.03;5031837;28;20519;-61
2022/07/26 11:22:03;;;;;;;8.50;7.53;;;;;;;27.98;46.89;94532.38;5029945;28;20099;-61
2022/07/26 11:24:29;;;;;;;10.32;8.30;;;;;;;27.95;47.13;94528.00;5023613;28;20506;-61
2022/07/26 11:26:54;;;;;;;8.70;7.63;;;;;;;27.96;46.53;94523.94;5025981;28;20566;-61
2022/07/26 11:29:29;;;;;;;9.50;7.95;;;;;;;27.96;46.65;94515.72;5029470;28;20021;-63
2022/07/26 11:31:55;;;;;;;10.82;7.95;;;;;;;27.98;46.19;94510.41;5024687;28;20033;-62
2022/07/26 11:34:24;;;;;;;10.02;7.13;;;;;;;27.97;46.18;94514.44;5037528;28;20028;-64
2022/07/26 11:36:52;;;;;;;11.30;7.57;;;;;;;27.89;45.79;94502.75;5050068;28;20068;-66
2022/07/26 11:39:22;;;;;;;9.82;7.30;;;;;;;27.95;45.71;94499.78;5044145;28;20029;-66
2022/07/26 11:41:48;;;;;;;8.65;6.97;;;;;;;27.97;45.96;94494.50;5025092;28;20021;-64
2022/07/26 11:44:18;;;;;;;11.40;7.40;;;;;;;27.77;46.47;94466.00;5035273;28;20021;-61
2022/07/26 11:46:46;;;;;;;;;;;;;;;27.96;46.92;94502.00;5050183;28;20621;-63
2022/07/26 11:49:13;;;;;;;9.82;7.30;;;;;;;27.98;47.07;94498.69;5045550;28;20089;-61
2022/07/26 11:51:39;;;;;;;11.00;7.90;;;;;;;28.05;46.78;94498.69;5044990;28;20515;-61
2022/07/26 11:54:05;;;;;;;8.90;7.18;;;;;;;27.98;47.48;94493.19;5027648;28;20032;-60
2022/07/26 11:56:31;;;;;;;11.25;6.90;;;;;;;27.95;47.70;94489.56;5033285;28;20538;-66
2022/07/26 11:58:57;;;;;;;10.88;7.07;;;;;;;28.02;48.06;94488.78;5045292;28;20028;-66
2022/07/26 12:01:23;;;;;;;8.88;6.78;;;;;;;28.03;47.52;94479.28;5043733;28;20021;-62
2022/07/26 12:03:50;;;;;;;8.73;6.85;;;;;;;28.04;47.74;94486.25;5043019;28;20522;-63
2022/07/26 12:06:17;;;;;;;10.32;7.13;;;;;;;28.09;47.79;94476.38;5027535;28;20107;-63
2022/07/26 12:08:48;;;;;;;10.90;6.72;;;;;;;28.05;47.66;94465.72;5026616;28;20053;-64
2022/07/26 12:11:14;;;;;;;7.70;6.45;;;;;;;28.06;47.17;94472.69;5035957;28;20471;-64
2022/07/26 12:13:55;;;;;;;8.10;6.68;;;;;;;28.03;47.23;94473.78;5043111;28;20029;-65
2022/07/26 12:16:44;;;;;;;7.03;6.32;;;;;;;28.00;47.09;94474.91;5044017;28;20086;-64
2022/07/26 12:19:16;;;;;;;8.20;6.20;;;;;;;27.90;47.12;94454.78;5026556;28;20025;-64
2022/07/26 12:21:45;;;;;;;8.52;6.50;;;;;;;27.96;47.15;94473.81;5022883;28;20028;-66
2022/07/26 12:24:11;;;;;;;7.30;6.28;;;;;;;27.85;47.03;94458.47;5032462;28;20277;-62
2022/07/26 12:26:37;;;;;;;8.48;6.35;;;;;;;27.95;46.94;94459.38;5022872;28;20028;-67
2022/07/26 12:31:59;;;;;;;8.43;6.35;;;;;;;27.96;46.75;94457.34;5013449;28;20037;-65
2022/07/26 12:34:25;;;;;;;6.88;6.13;;;;;;;28.00;46.53;94461.19;5030193;28;20024;-66
2022/07/26 12:36:50;;;;;;;7.30;6.22;;;;;;;27.95;47.19;94451.13;5026800;28;20033;-66
2022/07/26 12:39:20;;;;;;;7.43;6.30;;;;;;;27.89;46.62;94436.88;5029124;28;20030;-63
2022/07/26 12:41:49;;;;;;;7.43;6.40;;;;;;;27.99;46.98;94462.44;5012575;28;20017;-64
2022/07/26 12:44:15;;;;;;;8.85;6.05;;;;;;;27.94;46.44;94455.16;5028217;28;20108;-64
2022/07/26 12:46:43;;;;;;;7.50;6.00;;;;;;;27.90;46.44;94449.28;5028970;28;20113;-65
2022/07/26 12:49:09;;;;;;;7.53;5.93;;;;;;;27.94;46.76;94449.66;5025526;28;20018;-64